Time;durP1;ratioP1;P1;durP2;ratioP2;P2;SDS_P1;SDS_P2;PMS_P1;PMS_P2;Temp;Humidity;BMP_temperature;BMP_pressure;BME280_temperature;BME280_humidity;BME280_pressure;Samples;Min_cycle;Max_cycle;Signal;HPM_P1;HPM_P2
2022/01/10 00:01:51;;;;;;;41.63;20.00;;;;;;;-144.19;100.00;77459.19;5064651;28;20053;-90
2022/01/10 00:04:17;;;;;;;44.85;20.95;;;;;;;-144.19;100.00;77465.09;5060464;28;20311;-92
2022/01/10 00:06:45;;;;;;;43.95;18.98;;;;;;;-144.19;100.00;77455.25;5059952;28;20076;-90
2022/01/10 00:09:11;;;;;;;46.20;20.75;;;;;;;-144.19;100.00;77461.16;5060000;28;20114;-90
2022/01/10 00:11:38;;;;;;;41.30;18.17;;;;;;;-144.19;100.00;77455.25;5059776;28;20074;-89
2022/01/10 00:14:04;;;;;;;47.85;21.73;;;;;;;-144.19;100.00;77465.09;5059162;28;20060;-90
2022/01/10 00:16:31;;;;;;;46.25;20.25;;;;;;;-144.19;100.00;77472.97;5059856;28;20062;-91
2022/01/10 00:18:57;;;;;;;44.22;19.13;;;;;;;-144.19;100.00;77469.03;5060318;28;20060;-90
2022/01/10 00:21:24;;;;;;;30.17;14.00;;;;;;;-144.19;100.00;77476.91;5060002;28;20053;-91
2022/01/10 00:23:50;;;;;;;36.22;14.75;;;;;;;-144.19;100.00;77482.81;5060199;28;20325;-90
2022/01/10 00:26:17;;;;;;;29.93;14.47;;;;;;;-144.19;100.00;77480.84;5059873;28;20045;-90
2022/01/10 00:28:43;;;;;;;25.20;12.10;;;;;;;-144.19;100.00;77474.94;5060227;28;20283;-91
2022/01/10 00:31:09;;;;;;;23.02;11.00;;;;;;;-144.19;100.00;77476.91;5059841;28;20414;-91
2022/01/10 00:33:36;;;;;;;21.33;10.15;;;;;;;-144.19;100.00;77488.72;5059405;28;20664;-90
2022/01/10 00:36:03;;;;;;;30.33;11.10;;;;;;;-144.19;100.00;77476.91;5059110;28;20047;-88
2022/01/10 00:38:29;;;;;;;25.08;11.43;;;;;;;-144.19;100.00;77480.84;5059449;28;20048;-90
2022/01/10 00:40:56;;;;;;;28.85;11.25;;;;;;;-144.19;100.00;77476.91;5059220;28;20067;-90
2022/01/10 00:43:33;;;;;;;26.03;11.30;;;;;;;-144.19;100.00;77484.78;5058377;28;20052;-90
2022/01/10 00:46:01;;;;;;;;;;;;;;;-144.19;100.00;77492.66;5059051;28;20045;-90
2022/01/10 00:48:27;;;;;;;32.33;12.68;;;;;;;-144.19;100.00;77488.72;5059281;28;19920;-90
2022/01/10 00:50:55;;;;;;;32.47;12.15;;;;;;;-144.19;100.00;77488.72;5081813;28;20053;-90
2022/01/10 00:53:21;;;;;;;24.70;10.82;;;;;;;-144.19;100.00;77478.88;5059134;28;20075;-91
2022/01/10 00:55:55;;;;;;;34.83;12.70;;;;;;;-144.19;100.00;77486.75;5050795;28;20040;-91
2022/01/10 00:58:21;;;;;;;25.85;11.07;;;;;;;-144.19;100.00;77496.59;5038555;28;20280;-90
2022/01/10 01:00:48;;;;;;;40.33;15.33;;;;;;;-144.19;100.00;77502.50;5038327;28;20502;-90
2022/01/10 01:03:15;;;;;;;26.65;12.88;;;;;;;-144.19;100.00;77512.34;5037912;28;20048;-92
2022/01/10 01:05:43;;;;;;;31.50;14.47;;;;;;;-144.19;100.00;77512.34;5038934;28;20041;-90
2022/01/10 01:08:12;;;;;;;41.92;17.42;;;;;;;-144.19;100.00;77514.31;5039582;28;20063;-91
2022/01/10 01:13:39;;;;;;;31.13;15.05;;;;;;;-144.19;100.00;77528.09;5055946;28;20053;-92
2022/01/10 01:24:03;;;;;;;27.33;12.52;;;;;;;-144.19;100.00;77535.97;5056565;28;20127;-91
2022/01/10 01:26:41;;;;;;;36.75;18.80;;;;;;;-144.19;100.00;77530.06;5039042;28;20056;-91
2022/01/10 01:29:11;;;;;;;35.63;15.75;;;;;;;-144.19;100.00;77545.84;5039124;28;20125;-90
2022/01/10 01:31:38;;;;;;;43.00;18.33;;;;;;;-144.19;100.00;77549.75;5038633;28;20044;-90
2022/01/10 01:34:05;;;;;;;35.83;15.00;;;;;;;-144.19;100.00;77555.69;5037867;28;20400;-91
2022/01/10 01:36:33;;;;;;;23.40;12.50;;;;;;;-144.19;100.00;77549.75;5037179;28;20053;-90
2022/01/10 01:39:05;;;;;;;30.48;13.02;;;;;;;-144.19;100.00;77561.59;5037629;28;20048;-91
2022/01/10 01:43:59;;;;;;;34.33;15.97;;;;;;;-144.19;100.00;77557.63;5055613;28;20136;-91
2022/01/10 01:46:26;;;;;;;36.45;15.95;;;;;;;-144.19;100.00;77559.63;5037487;28;20284;-91
2022/01/10 01:48:54;;;;;;;28.23;12.98;;;;;;;-144.19;100.00;77563.56;5037017;28;20143;-91
2022/01/10 01:51:22;;;;;;;31.50;13.55;;;;;;;-144.19;100.00;77569.47;5037230;28;20148;-90
2022/01/10 01:53:49;;;;;;;25.52;12.32;;;;;;;-144.19;100.00;77561.59;5036580;28;20059;-88
2022/01/10 01:56:16;;;;;;;31.23;13.07;;;;;;;-144.19;100.00;77567.50;5046692;28;20041;-91
2022/01/10 01:58:44;;;;;;;35.28;13.20;;;;;;;-144.19;100.00;77563.56;5056484;28;20055;-91
2022/01/10 02:01:12;;;;;;;25.70;12.15;;;;;;;-144.19;100.00;77555.69;5074103;28;20058;-90
2022/01/10 02:03:41;;;;;;;25.45;12.25;;;;;;;-144.19;100.00;77571.44;5056900;28;20076;-90
2022/01/10 02:06:08;;;;;;;26.58;11.38;;;;;;;-144.19;100.00;77555.69;5075326;28;20048;-92
2022/01/10 02:08:37;;;;;;;26.83;12.05;;;;;;;-144.19;100.00;77573.41;5084358;22;20142;-93
2022/01/10 02:11:17;;;;;;;31.42;12.23;;;;;;;-144.19;100.00;77569.47;5074599;28;20086;-91
2022/01/10 02:13:45;;;;;;;32.85;15.27;;;;;;;-144.19;100.00;77579.31;5072618;28;20463;-92
2022/01/10 02:16:21;;;;;;;28.73;11.93;;;;;;;-144.19;100.00;77587.19;5073288;28;20044;-92
2022/01/10 02:19:01;;;;;;;33.42;13.45;;;;;;;-144.19;100.00;77600.97;5074295;28;20497;-93
2022/01/10 02:21:28;;;;;;;26.17;11.85;;;;;;;-144.19;100.00;77600.97;5072908;28;20067;-92
2022/01/10 02:23:58;;;;;;;32.08;13.40;;;;;;;-144.19;100.00;77614.75;5072653;28;20557;-92
2022/01/10 02:26:25;;;;;;;29.33;12.43;;;;;;;-144.19;100.00;77618.69;5073255;28;20048;-91
2022/01/10 02:28:54;;;;;;;32.22;12.95;;;;;;;-144.19;100.00;77618.69;5073322;28;20152;-91
2022/01/10 02:31:20;;;;;;;24.60;11.30;;;;;;;-144.19;100.00;77646.25;5073010;28;20048;-91
2022/01/10 02:33:51;;;;;;;22.40;10.95;;;;;;;-144.19;100.00;77644.28;5073347;28;20318;-92
2022/01/10 02:36:28;;;;;;;34.47;13.50;;;;;;;-144.19;100.00;77648.22;5074011;28;20074;-91
2022/01/10 02:39:08;;;;;;;24.95;12.75;;;;;;;-144.19;100.00;77654.13;5074036;28;20157;-91
2022/01/10 02:41:37;;;;;;;26.77;13.80;;;;;;;-144.19;100.00;77658.06;5073169;28;20056;-91
2022/01/10 02:44:08;;;;;;;39.20;13.95;;;;;;;-144.19;100.00;77665.94;5073155;28;20113;-91
2022/01/10 02:46:38;;;;;;;32.80;15.23;;;;;;;-144.19;100.00;77671.84;5073896;28;20132;-91
2022/01/10 02:49:11;;;;;;;41.40;20.27;;;;;;;-144.19;100.00;77667.91;5073518;28;20386;-92
2022/01/10 02:51:39;;;;;;;53.65;26.42;;;;;;;-144.19;100.00;77652.16;5072891;28;20558;-91
2022/01/10 02:54:08;;;;;;;44.08;21.73;;;;;;;-144.19;100.00;77663.97;5073246;28;20136;-91
2022/01/10 02:56:45;;;;;;;48.78;23.17;;;;;;;-144.19;100.00;77663.97;5058962;28;20045;-92
2022/01/10 02:59:15;;;;;;;45.42;21.20;;;;;;;-144.19;100.00;77662.00;5053235;28;20394;-91
2022/01/10 03:01:41;;;;;;;;;;;;;;;-144.19;100.00;77669.88;5053317;28;20048;-91
2022/01/10 03:04:15;;;;;;;52.22;21.33;;;;;;;-144.19;100.00;77671.84;5053085;28;19921;-91
2022/01/10 03:06:43;;;;;;;43.40;20.50;;;;;;;-144.19;100.00;77665.94;5053035;28;20127;-92
2022/01/10 03:09:12;;;;;;;33.05;17.33;;;;;;;-144.19;100.00;77677.75;5053311;28;20105;-92
2022/01/10 03:11:42;;;;;;;50.08;21.00;;;;;;;-144.19;100.00;77685.63;5052482;28;20502;-92
2022/01/10 03:14:08;;;;;;;48.47;22.80;;;;;;;-144.19;100.00;77697.44;5053244;28;20053;-91
2022/01/10 03:16:35;;;;;;;45.63;20.38;;;;;;;-144.19;100.00;77693.50;5052815;28;20049;-91
2022/01/10 03:19:02;;;;;;;44.72;19.73;;;;;;;-144.19;100.00;77693.50;5071209;28;20467;-91
2022/01/10 03:21:35;;;;;;;;;;;;;;;-144.19;100.00;77693.50;5053445;28;20123;-92
2022/01/10 03:24:02;;;;;;;46.58;22.70;;;;;;;-144.19;100.00;77695.47;5053044;28;19920;-92
2022/01/10 03:26:29;;;;;;;56.08;24.05;;;;;;;-144.19;100.00;77705.31;5055235;28;20143;-91
2022/01/10 03:28:55;;;;;;;47.38;22.67;;;;;;;-144.19;100.00;77717.13;5056900;28;20060;-91
2022/01/10 03:31:22;;;;;;;48.38;23.25;;;;;;;-144.19;100.00;77701.38;5057196;28;20485;-92
2022/01/10 03:33:50;;;;;;;28.95;16.88;;;;;;;-144.19;100.00;77721.06;5056672;28;20114;-91
2022/01/10 03:36:17;;;;;;;37.25;16.15;;;;;;;-144.19;100.00;77728.94;5056635;28;20102;-91
2022/01/10 03:38:46;;;;;;;25.63;12.88;;;;;;;-144.19;100.00;77740.75;5056902;28;20140;-91
2022/01/10 03:41:14;;;;;;;34.58;15.88;;;;;;;-144.19;100.00;77748.63;5056616;28;20048;-92
2022/01/10 03:43:41;;;;;;;38.63;18.23;;;;;;;-144.19;100.00;77740.75;5056671;28;20048;-92
2022/01/10 03:46:08;;;;;;;45.03;21.83;;;;;;;-144.19;100.00;77738.78;5056358;28;20048;-91
2022/01/10 03:48:36;;;;;;;35.47;22.40;;;;;;;-144.19;100.00;77756.50;5057117;28;20071;-91
2022/01/10 03:51:03;;;;;;;39.92;22.52;;;;;;;-144.19;100.00;77752.56;5056592;28;20418;-92
2022/01/10 03:53:29;;;;;;;41.97;20.52;;;;;;;-144.19;100.00;77764.38;5056586;28;20049;-91
2022/01/10 03:55:56;;;;;;;33.00;17.60;;;;;;;-144.19;100.00;77780.13;5063856;28;20048;-91
2022/01/10 03:58:22;;;;;;;33.15;15.35;;;;;;;-144.19;100.00;77768.31;5076454;28;20486;-92
2022/01/10 04:00:49;;;;;;;30.13;13.70;;;;;;;-144.19;100.00;77788.00;5076090;28;20052;-91
2022/01/10 04:03:16;;;;;;;31.83;15.43;;;;;;;-144.19;100.00;77788.00;5076361;28;20048;-91
2022/01/10 04:05:42;;;;;;;43.33;22.40;;;;;;;-144.19;100.00;77788.00;5076189;28;20412;-91
2022/01/10 04:08:16;;;;;;;38.05;20.83;;;;;;;-144.19;100.00;77789.97;5077284;28;20059;-91
2022/01/10 04:10:43;;;;;;;45.97;22.75;;;;;;;-144.19;100.00;77795.88;5077076;28;20432;-93
2022/01/10 04:13:10;;;;;;;39.45;21.33;;;;;;;-144.19;100.00;77807.69;5077198;28;20139;-91
2022/01/10 04:15:37;;;;;;;42.13;21.52;;;;;;;-144.19;100.00;77835.25;5076857;28;20063;-92
2022/01/10 04:18:07;;;;;;;39.10;20.17;;;;;;;-144.19;100.00;77847.09;5077414;28;20109;-91
2022/01/10 04:20:43;;;;;;;36.38;17.38;;;;;;;-144.19;100.00;77862.84;5077386;28;20500;-91
2022/01/10 04:23:14;;;;;;;27.02;17.75;;;;;;;-144.19;100.00;77868.75;5077708;28;20062;-91
2022/01/10 04:25:46;;;;;;;35.00;18.15;;;;;;;-144.19;100.00;77872.69;5077694;28;20048;-90
2022/01/10 04:28:12;;;;;;;41.50;22.65;;;;;;;-144.19;100.00;77876.63;5078973;28;20055;-90
2022/01/10 04:30:39;;;;;;;35.28;20.05;;;;;;;-144.19;100.00;77894.34;5077510;28;20155;-89
2022/01/10 04:33:05;;;;;;;34.53;18.48;;;;;;;-144.19;100.00;77906.16;5077480;28;20048;-90
2022/01/10 04:35:32;;;;;;;31.63;16.63;;;;;;;-144.19;100.00;77925.84;5095808;28;20052;-89
2022/01/10 04:38:14;;;;;;;41.33;20.90;;;;;;;-144.19;100.00;77929.78;5077188;28;20089;-91
2022/01/10 04:43:43;;;;;;;31.13;19.00;;;;;;;-144.19;100.00;77955.38;5094467;28;20085;-92
2022/01/10 04:46:09;;;;;;;45.47;23.23;;;;;;;-144.19;100.00;77955.38;5076755;28;20502;-92
2022/01/10 04:48:44;;;;;;;50.92;23.35;;;;;;;-144.19;100.00;77959.31;5076671;28;20425;-92
2022/01/10 04:51:24;;;;;;;43.75;22.10;;;;;;;-144.19;100.00;77957.34;5076895;28;20097;-91
2022/01/10 04:53:55;;;;;;;28.85;18.17;;;;;;;-144.19;100.00;77969.16;5075958;28;20054;-92
2022/01/10 04:56:27;;;;;;;31.55;17.60;;;;;;;-144.19;100.00;78000.66;5064570;28;20513;-90
2022/01/10 04:59:05;;;;;;;32.08;16.90;;;;;;;-144.19;100.00;78034.16;5075092;28;20668;-91
2022/01/10 05:01:32;;;;;;;30.80;17.35;;;;;;;-144.19;100.00;78038.09;5075415;28;20530;-90
2022/01/10 05:04:02;;;;;;;33.03;16.23;;;;;;;-144.19;100.00;78045.97;5055948;28;20060;-90
2022/01/10 05:06:39;;;;;;;26.88;15.10;;;;;;;-144.19;100.00;78085.34;5057657;28;20494;-92
2022/01/10 05:09:06;;;;;;;29.52;14.88;;;;;;;-144.19;100.00;78108.97;5070003;28;20165;-93
2022/01/10 05:11:35;;;;;;;30.73;15.80;;;;;;;-144.19;100.00;78085.34;5068724;28;20127;-92
2022/01/10 05:14:03;;;;;;;30.52;15.13;;;;;;;-144.19;100.00;78087.31;5058422;28;20079;-93
2022/01/10 05:16:29;;;;;;;;;;;;;;;-144.19;100.00;78079.44;5067244;28;20064;-93
2022/01/10 05:19:01;;;;;;;41.42;20.02;;;;;;;-144.19;100.00;78040.06;5069336;28;19931;-92
2022/01/10 05:21:27;;;;;;;44.38;21.20;;;;;;;-144.19;100.00;78057.78;5065013;28;20054;-92
2022/01/10 05:23:54;;;;;;;40.25;22.27;;;;;;;-144.19;100.00;78065.66;5064072;28;20416;-92
2022/01/10 05:26:23;;;;;;;57.38;25.92;;;;;;;-144.19;100.00;78042.03;5067789;28;20044;-91
2022/01/10 05:28:49;;;;;;;66.75;31.52;;;;;;;-144.19;100.00;78036.13;5076238;28;20436;-91
2022/01/10 05:31:16;;;;;;;45.60;23.20;;;;;;;-144.19;100.00;78044.00;5075814;28;20131;-92
2022/01/10 05:33:46;;;;;;;30.25;18.02;;;;;;;-144.19;100.00;78087.31;5076849;28;20052;-92
2022/01/10 05:36:13;;;;;;;27.80;15.85;;;;;;;-144.19;100.00;78138.50;5076688;28;20051;-92
2022/01/10 05:38:40;;;;;;;30.90;14.85;;;;;;;-144.19;100.00;78142.44;5076551;28;20098;-91
2022/01/10 05:41:11;;;;;;;;;;;;;;;-144.19;100.00;78170.00;5076357;28;20066;-92
2022/01/10 05:43:40;;;;;;;26.17;14.38;;;;;;;-144.19;100.00;78170.00;5076410;28;19930;-93
2022/01/10 05:46:08;;;;;;;28.98;14.38;;;;;;;-144.19;100.00;78181.84;5076574;28;20040;-92
2022/01/10 05:48:46;;;;;;;32.60;15.35;;;;;;;-144.19;100.00;78177.91;5075505;28;20535;-93
2022/01/10 05:51:14;;;;;;;35.17;17.23;;;;;;;-144.19;100.00;78185.78;5075835;28;20454;-92
2022/01/10 05:53:41;;;;;;;33.83;17.52;;;;;;;-144.19;100.00;78189.72;5077210;28;20056;-92
2022/01/10 05:56:08;;;;;;;;;;;;;;;-144.19;100.00;78197.59;5067526;28;20068;-92
2022/01/10 05:58:37;;;;;;;38.40;19.98;;;;;;;-144.19;100.00;78189.72;5057392;28;19928;-92
2022/01/10 06:01:10;;;;;;;33.35;16.80;;;;;;;-144.19;100.00;78199.56;5057306;28;20082;-92
2022/01/10 06:03:37;;;;;;;32.25;17.17;;;;;;;-144.19;100.00;78221.22;5056538;28;20052;-92
2022/01/10 06:06:14;;;;;;;25.85;14.90;;;;;;;-144.19;100.00;78252.72;5057147;28;20048;-93
2022/01/10 06:08:41;;;;;;;33.08;16.40;;;;;;;-144.19;100.00;78256.66;5057508;28;20126;-88
2022/01/10 06:11:07;;;;;;;37.73;18.73;;;;;;;-144.19;100.00;78252.72;5079608;28;20044;-89
2022/01/10 06:13:34;;;;;;;38.73;20.30;;;;;;;-144.19;100.00;78225.16;5074709;28;20290;-92
2022/01/10 06:16:01;;;;;;;38.35;19.52;;;;;;;-144.19;100.00;78244.84;5060617;28;20390;-94
2022/01/10 06:18:27;;;;;;;34.63;18.45;;;;;;;-144.19;100.00;78242.88;5055523;28;20052;-93
2022/01/10 06:20:54;;;;;;;36.42;18.25;;;;;;;-144.19;100.00;78260.59;5054983;28;20079;-93
2022/01/10 06:23:21;;;;;;;33.53;18.63;;;;;;;-144.19;100.00;78252.72;5054901;28;20048;-93
2022/01/10 06:25:50;;;;;;;33.70;18.55;;;;;;;-144.19;100.00;78266.50;5055501;28;20044;-92
2022/01/10 06:28:18;;;;;;;35.78;19.83;;;;;;;-144.19;100.00;78262.56;5055072;28;20048;-93
2022/01/10 06:30:54;;;;;;;39.65;22.05;;;;;;;-144.19;100.00;78278.31;5054938;28;20044;-92
2022/01/10 06:33:24;;;;;;;54.38;23.25;;;;;;;-144.19;100.00;78280.28;5054812;28;20060;-92
2022/01/10 06:35:50;;;;;;;39.25;22.30;;;;;;;-144.19;100.00;78284.22;5054623;28;20135;-93
2022/01/10 06:38:16;;;;;;;44.73;24.00;;;;;;;-144.19;100.00;78286.19;5055377;28;20048;-94
2022/01/10 06:40:43;;;;;;;43.97;22.17;;;;;;;-144.19;100.00;78292.09;5054414;28;20330;-93
2022/01/10 06:43:09;;;;;;;42.92;21.92;;;;;;;-144.19;100.00;78303.94;5054792;28;20386;-93
2022/01/10 06:45:37;;;;;;;37.00;21.13;;;;;;;-144.19;100.00;78303.94;5054906;28;20491;-93
2022/01/10 06:48:05;;;;;;;38.65;21.85;;;;;;;-144.19;100.00;78307.88;5054836;28;20406;-93
2022/01/10 06:50:31;;;;;;;41.00;21.48;;;;;;;-144.19;100.00;78311.81;5069037;28;20037;-95
2022/01/10 06:52:58;;;;;;;40.17;22.73;;;;;;;-144.19;100.00;78313.78;5069873;28;20465;-93
2022/01/10 06:55:26;;;;;;;38.40;20.00;;;;;;;-144.19;100.00;78339.38;5058563;28;20048;-94
2022/01/10 06:57:53;;;;;;;41.88;22.17;;;;;;;-144.19;100.00;78347.25;5074837;28;20071;-90
2022/01/10 07:05:06;;;;;;;43.30;21.20;;;;;;;-144.19;100.00;78327.56;4996602;28;20100;-93
2022/01/10 07:08:02;;;;;;;46.40;20.42;;;;;;;-144.19;100.00;78329.53;4981746;28;20090;-95
2022/01/10 07:11:21;;;;;;;;;;;;;;;;;;;;;
2022/01/10 07:14:21;;;;;;;40.95;22.58;;;;;;;-144.19;100.00;78323.63;5048774;28;20133;-95
2022/01/10 07:17:39;;;;;;;36.75;20.77;;;;;;;-144.19;100.00;78339.38;5082178;28;20527;-94
2022/01/10 07:21:11;;;;;;;41.20;22.80;;;;;;;-144.19;100.00;78359.06;5081766;28;20052;-93
2022/01/10 07:24:29;;;;;;;;;;;;;;;;;;;;;
2022/01/10 07:27:24;;;;;;;36.35;20.27;;;;;;;-144.19;100.00;78396.47;5097104;28;20501;-94
2022/01/10 07:34:31;;;;;;;41.88;21.58;;;;;;;-144.19;100.00;78402.38;5069098;28;20101;-93
2022/01/10 07:41:03;;;;;;;39.33;20.30;;;;;;;-144.19;100.00;78422.09;5151315;23;20048;-93
2022/01/10 07:43:56;;;;;;;36.95;19.85;;;;;;;-144.19;100.00;78428.00;5039541;28;20523;-94
2022/01/10 07:47:02;;;;;;;40.45;21.08;;;;;;;-144.19;100.00;78428.00;5056273;28;20052;-94
2022/01/10 07:50:29;;;;;;;31.85;18.33;;;;;;;-144.19;100.00;78441.78;5036236;28;20511;-93
2022/01/10 07:57:46;;;;;;;42.58;20.48;;;;;;;-144.19;100.00;78475.25;4975760;28;20082;-93
2022/01/10 08:00:48;;;;;;;;;;;;;;;;;;;;;
2022/01/10 08:04:36;;;;;;;44.25;24.35;;;;;;;-144.19;100.00;78481.16;4975983;28;20135;-93
2022/01/10 08:07:28;;;;;;;37.83;22.25;;;;;;;-144.19;100.00;78502.81;4959571;28;20045;-93
2022/01/10 08:17:18;;;;;;;49.95;24.13;;;;;;;-144.19;100.00;78449.66;5053520;28;20052;-88
2022/01/10 08:22:50;;;;;;;39.78;22.10;;;;;;;-144.19;100.00;78457.53;5016465;28;20113;-87
2022/01/10 08:25:20;;;;;;;40.15;22.02;;;;;;;-144.19;100.00;78441.78;5036324;28;20619;-87
2022/01/10 08:28:08;;;;;;;43.00;22.52;;;;;;;-144.19;100.00;78461.47;5035302;28;20057;-86
2022/01/10 08:30:38;;;;;;;40.50;22.00;;;;;;;-144.19;100.00;78461.47;5036473;28;20054;-86
2022/01/10 08:33:05;;;;;;;52.47;26.13;;;;;;;-144.19;100.00;78459.50;5035923;28;20059;-87
2022/01/10 08:35:56;;;;;;;45.50;23.83;;;;;;;-144.19;100.00;78459.50;5053662;28;20049;-88
2022/01/10 08:38:41;;;;;;;38.08;22.80;;;;;;;-144.19;100.00;78465.41;5041455;28;20144;-88
2022/01/10 08:43:06;;;;;;;37.78;22.33;;;;;;;-144.19;100.00;78481.16;4973377;28;20082;-85
2022/01/10 08:45:47;;;;;;;35.92;19.55;;;;;;;-144.19;100.00;78489.03;4971386;28;20055;-86
2022/01/10 08:48:47;;;;;;;35.95;20.65;;;;;;;-144.19;100.00;78504.78;5009695;28;20056;-89
2022/01/10 08:51:41;;;;;;;;;;;;;;;;;;;;;
2022/01/10 08:54:17;;;;;;;42.78;24.02;;;;;;;-144.19;100.00;78520.56;5040353;28;20076;-87
2022/01/10 08:57:04;;;;;;;41.72;23.08;;;;;;;-144.19;100.00;78512.66;5037385;28;20113;-89
2022/01/10 09:08:11;;;;;;;48.72;26.55;;;;;;;-144.19;100.00;78481.16;5034429;28;20064;-86
2022/01/10 09:11:12;;;;;;;48.33;27.30;;;;;;;-144.19;100.00;78469.34;4960439;28;20062;-87
2022/01/10 09:13:45;;;;;;;53.67;27.73;;;;;;;-144.19;100.00;78449.66;5012629;28;20069;-87
2022/01/10 09:16:31;;;;;;;55.42;27.98;;;;;;;-144.19;100.00;78459.50;4963799;28;20540;-86
2022/01/10 09:27:05;;;;;;;49.40;29.35;;;;;;;-144.19;100.00;78429.97;4934431;29;20072;-87
2022/01/10 09:29:40;;;;;;;55.42;30.33;;;;;;;-144.19;100.00;78433.91;4918090;29;20064;-87
2022/01/10 09:32:11;;;;;;;64.03;32.08;;;;;;;-144.19;100.00;78422.09;4918623;28;20100;-87
2022/01/10 09:34:52;;;;;;;54.47;30.58;;;;;;;-144.19;100.00;78414.19;5016662;28;20073;-86
2022/01/10 09:37:22;;;;;;;46.40;28.80;;;;;;;-144.19;100.00;78426.03;5015628;28;20049;-87
2022/01/10 09:40:49;;;;;;;56.92;31.30;;;;;;;-144.19;100.00;78422.09;5022098;28;20049;-86
2022/01/10 09:47:34;;;;;;;57.40;29.77;;;;;;;-144.19;100.00;78418.13;5029645;28;20049;-87
2022/01/10 09:50:15;;;;;;;57.47;29.23;;;;;;;-144.19;100.00;78406.31;5014408;28;20049;-88
2022/01/10 09:56:49;;;;;;;56.38;31.48;;;;;;;-144.19;100.00;78390.56;4972436;28;20074;-87
2022/01/10 09:59:26;;;;;;;58.50;30.38;;;;;;;-144.19;100.00;78382.69;5016682;28;20058;-87
2022/01/10 10:01:58;;;;;;;52.75;30.73;;;;;;;-144.19;100.00;78378.75;5015614;28;20061;-88
2022/01/10 10:04:46;;;;;;;52.28;29.63;;;;;;;-144.19;100.00;78370.88;5034099;28;20053;-87
2022/01/10 10:08:13;;;;;;;51.88;31.50;;;;;;;-144.19;100.00;78355.13;4994541;28;20084;-87
2022/01/10 10:11:15;;;;;;;56.03;31.20;;;;;;;-144.19;100.00;78341.34;5029953;28;20053;-88
2022/01/10 10:13:56;;;;;;;48.35;29.25;;;;;;;-144.19;100.00;78357.09;5036540;28;20613;-87
2022/01/10 10:17:11;;;;;;;50.83;30.38;;;;;;;-144.19;100.00;78349.22;5034189;28;20125;-88
2022/01/10 10:19:56;;;;;;;46.50;28.00;;;;;;;-144.19;100.00;78345.28;5051518;28;20053;-87
2022/01/10 10:22:30;;;;;;;41.85;27.05;;;;;;;-144.19;100.00;78335.44;5034423;28;20053;-85
2022/01/10 10:25:12;;;;;;;45.08;27.95;;;;;;;-144.19;100.00;78319.69;5034682;28;20057;-84
2022/01/10 10:27:59;;;;;;;47.60;27.85;;;;;;;-144.19;100.00;78284.22;5035599;28;20064;-87
2022/01/10 10:30:35;;;;;;;46.13;28.58;;;;;;;-144.19;100.00;78215.31;5035479;28;20124;-86
2022/01/10 10:33:34;;;;;;;54.78;29.58;;;;;;;-144.19;100.00;78189.72;4971822;29;20058;-85
2022/01/10 10:36:08;;;;;;;43.97;27.95;;;;;;;-144.19;100.00;78130.63;5027139;28;20053;-86
2022/01/10 10:46:17;;;;;;;34.95;21.65;;;;;;;-144.19;100.00;77996.72;4989010;28;20040;-87
2022/01/10 10:48:53;;;;;;;28.65;20.65;;;;;;;-144.19;100.00;77994.75;5029789;28;20058;-86
2022/01/10 10:51:31;;;;;;;36.47;20.65;;;;;;;-144.19;100.00;78000.66;5035100;28;20057;-87
2022/01/10 10:54:12;;;;;;;42.97;24.02;;;;;;;-144.19;100.00;77898.28;5034732;28;20068;-87
2022/01/10 10:56:42;;;;;;;;;;;;;;;-144.19;100.00;77788.00;5034633;28;20045;-87
2022/01/10 11:03:31;;;;;;;26.45;19.08;;;;;;;-144.19;100.00;77786.03;4952358;29;20079;-87
2022/01/10 11:06:29;;;;;;;29.10;18.15;;;;;;;-144.19;100.00;77878.59;4936982;29;20056;-86
2022/01/10 11:09:19;;;;;;;31.08;19.92;;;;;;;-144.19;100.00;77892.38;4937307;29;20089;-87
2022/01/10 11:11:56;;;;;;;27.15;16.65;;;;;;;-144.19;100.00;77894.34;4936334;29;20056;-87
2022/01/10 11:15:00;;;;;;;34.40;18.63;;;;;;;-144.19;100.00;77760.44;4882795;29;20065;-87
2022/01/10 11:17:55;;;;;;;26.13;17.05;;;;;;;-144.19;100.00;77776.19;4942772;28;20514;-87
2022/01/10 11:20:39;;;;;;;30.08;18.35;;;;;;;-144.19;100.00;77719.09;5034384;28;20053;-87
2022/01/10 11:23:41;;;;;;;30.88;16.42;;;;;;;-144.19;100.00;77728.94;4995861;28;20054;-87
2022/01/10 11:26:22;;;;;;;30.38;16.55;;;;;;;-144.19;100.00;77728.94;5034521;28;20503;-87
2022/01/10 11:29:09;;;;;;;27.15;16.30;;;;;;;-144.19;100.00;77811.63;5027759;28;20057;-87
2022/01/10 11:31:46;;;;;;;27.63;15.50;;;;;;;-144.19;100.00;77697.44;5033306;28;20053;-87
2022/01/10 11:34:16;;;;;;;23.75;15.07;;;;;;;-144.19;100.00;77618.69;5031525;28;20053;-87
2022/01/10 11:36:55;;;;;;;29.35;14.45;;;;;;;-144.19;100.00;77667.91;5033696;28;20053;-87
2022/01/10 11:39:46;;;;;;;27.42;13.73;;;;;;;-144.19;100.00;77689.56;5026677;28;20080;-87
2022/01/10 11:42:25;;;;;;;22.10;13.48;;;;;;;-144.19;100.00;77634.44;5034676;28;20047;-87
2022/01/10 11:48:52;;;;;;;25.63;13.65;;;;;;;-144.19;100.00;77707.28;5024383;28;20072;-87
2022/01/10 11:51:38;;;;;;;22.45;12.15;;;;;;;-144.19;100.00;77624.59;5039916;28;20087;-86
2022/01/10 12:06:30;;;;;;;28.42;14.65;;;;;;;-144.19;100.00;77829.34;4936411;29;20129;-84
2022/01/10 12:09:04;;;;;;;30.33;17.98;;;;;;;-144.19;100.00;77780.13;4949469;28;20056;-84
2022/01/10 12:11:38;;;;;;;26.15;17.88;;;;;;;-144.19;100.00;77847.09;5018401;28;20105;-85
2022/01/10 12:17:12;;;;;;;;;;;;;;;-144.19;100.00;78020.34;4974958;29;20447;-84
2022/01/10 12:19:53;;;;;;;28.45;17.20;;;;;;;-144.19;100.00;78049.91;4957602;29;19922;-84
2022/01/10 12:22:23;;;;;;;28.38;18.73;;;;;;;-144.19;100.00;78040.06;5033207;28;20058;-84
2022/01/10 12:24:55;;;;;;;37.95;22.48;;;;;;;-144.19;100.00;77994.75;5033577;28;20045;-84
2022/01/10 12:27:44;;;;;;;47.17;25.50;;;;;;;-144.19;100.00;78014.44;5033495;28;20053;-85
2022/01/10 12:30:17;;;;;;;33.80;21.67;;;;;;;-144.19;100.00;78055.81;5016323;28;20106;-87
2022/01/10 12:40:18;;;;;;;24.77;17.35;;;;;;;-144.19;100.00;78122.75;4973143;28;20042;-89
2022/01/10 12:43:18;;;;;;;33.47;23.15;;;;;;;-144.19;100.00;78083.38;5015757;28;20054;-87
2022/01/10 12:50:14;;;;;;;35.45;20.77;;;;;;;-144.19;100.00;78124.72;4954292;29;20039;-88
2022/01/10 12:52:55;;;;;;;32.72;22.33;;;;;;;-144.19;100.00;78150.31;4952824;28;20055;-87
2022/01/10 12:55:40;;;;;;;33.58;20.48;;;;;;;-144.19;100.00;78162.13;5019493;28;20045;-88
2022/01/10 12:58:18;;;;;;;33.72;22.50;;;;;;;-144.19;100.00;78134.56;5051635;28;20053;-86
2022/01/10 13:08:14;;;;;;;36.40;23.90;;;;;;;-144.19;100.00;78171.97;4979507;28;20064;-86
2022/01/10 13:10:51;;;;;;;37.67;21.67;;;;;;;-144.19;100.00;78201.53;5035902;28;20053;-86
2022/01/10 13:13:39;;;;;;;42.55;25.27;;;;;;;-144.19;100.00;78164.09;5049036;28;20088;-86
2022/01/10 13:16:31;;;;;;;33.08;22.35;;;;;;;-144.19;100.00;78162.13;5053156;28;20061;-86
2022/01/10 13:19:09;;;;;;;34.25;21.00;;;;;;;-144.19;100.00;78189.72;5034743;28;20049;-86
2022/01/10 13:21:45;;;;;;;;;;;;;;;-144.19;100.00;78197.59;5052558;28;20052;-85
2022/01/10 13:24:14;;;;;;;28.42;20.75;;;;;;;-144.19;100.00;78138.50;5034097;28;19909;-87
2022/01/10 13:27:19;;;;;;;35.78;23.98;;;;;;;-144.19;100.00;78140.47;5036822;28;20064;-86
2022/01/10 13:29:58;;;;;;;34.08;23.67;;;;;;;-144.19;100.00;78103.06;5031914;28;20049;-86
2022/01/10 13:32:36;;;;;;;36.20;24.20;;;;;;;-144.19;100.00;78095.19;5052275;28;20057;-86
2022/01/10 13:35:07;;;;;;;38.97;24.58;;;;;;;-144.19;100.00;78089.28;5038405;28;20068;-86
2022/01/10 13:37:55;;;;;;;39.30;24.02;;;;;;;-144.19;100.00;78091.25;5030578;28;20107;-89
2022/01/10 13:40:40;;;;;;;36.67;26.00;;;;;;;-144.19;100.00;78069.59;5053888;28;20091;-86